Terminal Aerodrome Forecast
Issued by NWS Memphis, TN

Home | Current Version | Previous Version | Text Only | Print | Product List | Glossary On
Versions: 1 2 3 4 5 6 7 8 9 10 11 12 13 14 15 16 17 18 19 20 21 22 23 24 25
000
FTUS44 KMEG 252330
TAFJBR
TAF
KJBR 252330Z 2600/2624 17010KT P6SM SCT050 BKN250
     FM260600 17010KT P6SM VCTS SCT025CB BKN040
      TEMPO 2607/2610 3SM TSRA BR BKN025CB OVC040
     FM261000 18012KT 6SM -RA BR OVC015
     FM261400 20015G22KT P6SM OVC025
     FM261800 20015G22KT P6SM BKN035=

USA.gov is the U.S. government's official web portal to all federal, state and local government web resources and services.